BTY017 DTTX-LIEO
Flight info
| Callsign | BTY017 |
|---|---|
| Flight time | 1h 16m |
| Altitude | 24000 |
| Route | KADRA1A KADRA G727 MON/N0443F360 UA411 TUC UA725 OSMAR/N0344F180 M733 CAR M732 KOVAS Q125 LABOM |
| Aircraft | B739/M-SDE2E3FGHIRWXY/LB1 |
Departure
| Time | 2026-04-22 06:39 |
|---|---|
| Airport | Sfax Thyna International Airport (DTTX) |
Arrival
| Time | 2026-04-22 07:55 |
|---|---|
| Airport | Olbia Costa Smeralda Airport (LIEO) |
| Time | Latitude | Longitude | Altitude | Speed | Heading |
|---|---|---|---|---|---|
| 2026-04-22 06:18 | 34.72314 | 10.69050 | 65 ft | 0 kts | 58° |
| 2026-04-22 06:34 | 34.72314 | 10.69051 | 73 ft | 1 kts | 64° |
| 2026-04-22 06:34 | 34.72303 | 10.69056 | 66 ft | 3 kts | 192° |
| 2026-04-22 06:34 | 34.72280 | 10.69024 | 69 ft | 8 kts | 208° |
| 2026-04-22 06:35 | 34.72210 | 10.69049 | 73 ft | 14 kts | 163° |
| 2026-04-22 06:35 | 34.72128 | 10.68983 | 65 ft | 16 kts | 237° |
| 2026-04-22 06:35 | 34.72085 | 10.68864 | 71 ft | 15 kts | 277° |
| 2026-04-22 06:35 | 34.72157 | 10.68777 | 67 ft | 15 kts | 329° |
| 2026-04-22 06:36 | 34.72244 | 10.68713 | 68 ft | 14 kts | 328° |
| 2026-04-22 06:36 | 34.72325 | 10.68650 | 67 ft | 14 kts | 329° |
| 2026-04-22 06:36 | 34.72403 | 10.68592 | 67 ft | 13 kts | 326° |
| 2026-04-22 06:36 | 34.72479 | 10.68535 | 68 ft | 13 kts | 329° |
| 2026-04-22 06:37 | 34.72552 | 10.68478 | 70 ft | 12 kts | 328° |
| 2026-04-22 06:37 | 34.72629 | 10.68440 | 73 ft | 12 kts | 2° |
| 2026-04-22 06:37 | 34.72662 | 10.68400 | 72 ft | 9 kts | 222° |
| 2026-04-22 06:37 | 34.72617 | 10.68430 | 66 ft | 0 kts | 151° |
| 2026-04-22 06:38 | 34.72601 | 10.68441 | 70 ft | 18 kts | 151° |
| 2026-04-22 06:38 | 34.72283 | 10.68680 | 67 ft | 88 kts | 148° |
| 2026-04-22 06:38 | 34.71586 | 10.69207 | 73 ft | 145 kts | 148° |
| 2026-04-22 06:39 | 34.70611 | 10.69930 | 223 ft | 175 kts | 149° |
| 2026-04-22 06:39 | 34.69567 | 10.70698 | 720 ft | 182 kts | 150° |
| 2026-04-22 06:39 | 34.68373 | 10.71060 | 1344 ft | 175 kts | 196° |
| 2026-04-22 06:39 | 34.67465 | 10.70228 | 1916 ft | 174 kts | 244° |
| 2026-04-22 06:40 | 34.67399 | 10.68693 | 2126 ft | 202 kts | 290° |
| 2026-04-22 06:40 | 34.68402 | 10.67394 | 2313 ft | 230 kts | 333° |
| 2026-04-22 06:40 | 34.70035 | 10.67217 | 2631 ft | 249 kts | 14° |
| 2026-04-22 06:40 | 34.71470 | 10.68387 | 3133 ft | 256 kts | 53° |
| 2026-04-22 06:41 | 34.72394 | 10.70277 | 3507 ft | 268 kts | 49° |
| 2026-04-22 06:41 | 34.73964 | 10.71486 | 3912 ft | 274 kts | 9° |
| 2026-04-22 06:41 | 34.75845 | 10.71525 | 4720 ft | 270 kts | 354° |
| 2026-04-22 06:41 | 34.77719 | 10.71359 | 5485 ft | 271 kts | 354° |
| 2026-04-22 06:42 | 34.79613 | 10.71208 | 6248 ft | 274 kts | 355° |
| 2026-04-22 06:42 | 34.81520 | 10.71085 | 6971 ft | 275 kts | 356° |
| 2026-04-22 06:42 | 34.83441 | 10.70983 | 7702 ft | 277 kts | 356° |
| 2026-04-22 06:42 | 34.85374 | 10.70897 | 8440 ft | 279 kts | 357° |
| 2026-04-22 06:43 | 34.87324 | 10.70820 | 9176 ft | 281 kts | 357° |
| 2026-04-22 06:43 | 34.89285 | 10.70748 | 9918 ft | 283 kts | 357° |
| 2026-04-22 06:43 | 34.91286 | 10.70678 | 10342 ft | 297 kts | 357° |
| 2026-04-22 06:43 | 34.93429 | 10.70604 | 10499 ft | 319 kts | 357° |
| 2026-04-22 06:44 | 34.95715 | 10.70526 | 10721 ft | 336 kts | 357° |
| 2026-04-22 06:44 | 34.98087 | 10.70504 | 11211 ft | 344 kts | 360° |
| 2026-04-22 06:44 | 35.00495 | 10.70612 | 11866 ft | 347 kts | 1° |
| 2026-04-22 06:44 | 35.02918 | 10.70759 | 12555 ft | 350 kts | 1° |
| 2026-04-22 06:45 | 35.05358 | 10.70913 | 13241 ft | 353 kts | 1° |
| 2026-04-22 06:45 | 35.07823 | 10.71062 | 13896 ft | 357 kts | 0° |
| 2026-04-22 06:45 | 35.10316 | 10.71206 | 14509 ft | 360 kts | 0° |
| 2026-04-22 06:45 | 35.12834 | 10.71345 | 15167 ft | 363 kts | 0° |
| 2026-04-22 06:46 | 35.15369 | 10.71483 | 15825 ft | 366 kts | 360° |
| 2026-04-22 06:46 | 35.17927 | 10.71619 | 16458 ft | 370 kts | 360° |
| 2026-04-22 06:46 | 35.20512 | 10.71756 | 17076 ft | 374 kts | 359° |
| 2026-04-22 06:46 | 35.23126 | 10.71893 | 17699 ft | 377 kts | 359° |
| 2026-04-22 06:47 | 35.25757 | 10.72032 | 18313 ft | 381 kts | 359° |
| 2026-04-22 06:47 | 35.28417 | 10.72173 | 18864 ft | 384 kts | 359° |
| 2026-04-22 06:47 | 35.31091 | 10.72315 | 19435 ft | 386 kts | 359° |
| 2026-04-22 06:47 | 35.33783 | 10.72458 | 20009 ft | 388 kts | 359° |
| 2026-04-22 06:48 | 35.36494 | 10.72601 | 20567 ft | 391 kts | 359° |
| 2026-04-22 06:48 | 35.39223 | 10.72746 | 21114 ft | 394 kts | 359° |
| 2026-04-22 06:48 | 35.41974 | 10.72892 | 21658 ft | 397 kts | 359° |
| 2026-04-22 06:48 | 35.44741 | 10.73043 | 22185 ft | 400 kts | 359° |
| 2026-04-22 06:49 | 35.47532 | 10.73201 | 22708 ft | 403 kts | 359° |
| 2026-04-22 06:49 | 35.50338 | 10.73362 | 23231 ft | 406 kts | 359° |
| 2026-04-22 06:49 | 35.53170 | 10.73524 | 23716 ft | 409 kts | 359° |
| 2026-04-22 06:49 | 35.56020 | 10.73687 | 24159 ft | 411 kts | 359° |
| 2026-04-22 06:50 | 35.58885 | 10.73850 | 24608 ft | 413 kts | 359° |
| 2026-04-22 06:50 | 35.61764 | 10.74015 | 25036 ft | 416 kts | 359° |
| 2026-04-22 06:50 | 35.64656 | 10.74180 | 25459 ft | 418 kts | 359° |
| 2026-04-22 06:50 | 35.67574 | 10.74346 | 25878 ft | 420 kts | 359° |
| 2026-04-22 06:51 | 35.70503 | 10.74513 | 26289 ft | 423 kts | 359° |
| 2026-04-22 06:51 | 35.73449 | 10.74612 | 26696 ft | 423 kts | 353° |
| 2026-04-22 06:51 | 35.76366 | 10.74192 | 27096 ft | 421 kts | 345° |
| 2026-04-22 06:51 | 35.79170 | 10.73222 | 27535 ft | 418 kts | 336° |
| 2026-04-22 06:52 | 35.81897 | 10.71944 | 27966 ft | 420 kts | 335° |
| 2026-04-22 06:52 | 35.84628 | 10.70637 | 28344 ft | 422 kts | 335° |
| 2026-04-22 06:52 | 35.87336 | 10.69340 | 28723 ft | 425 kts | 335° |
| 2026-04-22 06:52 | 35.90137 | 10.68008 | 29106 ft | 427 kts | 336° |
| 2026-04-22 06:53 | 35.92920 | 10.66695 | 29483 ft | 429 kts | 336° |
| 2026-04-22 06:53 | 35.95672 | 10.65404 | 29979 ft | 428 kts | 336° |
| 2026-04-22 06:53 | 35.98447 | 10.64107 | 30478 ft | 425 kts | 336° |
| 2026-04-22 06:53 | 36.01198 | 10.62822 | 30949 ft | 422 kts | 335° |
| 2026-04-22 06:54 | 36.03946 | 10.61537 | 31363 ft | 422 kts | 335° |
| 2026-04-22 06:54 | 36.06719 | 10.60239 | 31800 ft | 420 kts | 335° |
| 2026-04-22 06:54 | 36.09409 | 10.58979 | 32223 ft | 418 kts | 335° |
| 2026-04-22 06:54 | 36.12126 | 10.57704 | 32615 ft | 417 kts | 335° |
| 2026-04-22 06:55 | 36.14839 | 10.56430 | 32968 ft | 417 kts | 335° |
| 2026-04-22 06:55 | 36.17551 | 10.55155 | 33304 ft | 417 kts | 335° |
| 2026-04-22 06:55 | 36.20259 | 10.53882 | 33708 ft | 415 kts | 335° |
| 2026-04-22 06:55 | 36.22953 | 10.52615 | 34107 ft | 413 kts | 334° |
| 2026-04-22 06:56 | 36.25640 | 10.51350 | 34411 ft | 413 kts | 334° |
| 2026-04-22 06:56 | 36.28328 | 10.50083 | 34682 ft | 413 kts | 334° |
| 2026-04-22 06:56 | 36.31001 | 10.48823 | 35060 ft | 410 kts | 334° |
| 2026-04-22 06:56 | 36.33661 | 10.47570 | 35393 ft | 408 kts | 334° |
| 2026-04-22 06:57 | 36.36315 | 10.46316 | 35631 ft | 409 kts | 334° |
| 2026-04-22 06:57 | 36.38973 | 10.45059 | 35869 ft | 409 kts | 334° |
| 2026-04-22 06:57 | 36.41639 | 10.43796 | 35945 ft | 412 kts | 334° |
| 2026-04-22 06:58 | 36.47003 | 10.41254 | 35955 ft | 412 kts | 334° |
| 2026-04-22 06:58 | 36.52317 | 10.38737 | 35955 ft | 406 kts | 334° |
| 2026-04-22 06:59 | 36.57583 | 10.36236 | 35968 ft | 404 kts | 333° |
| 2026-04-22 06:59 | 36.62816 | 10.33746 | 35958 ft | 401 kts | 333° |
| 2026-04-22 07:00 | 36.68034 | 10.31259 | 35967 ft | 401 kts | 333° |
| 2026-04-22 07:00 | 36.73244 | 10.28772 | 35972 ft | 402 kts | 333° |
| 2026-04-22 07:01 | 36.78474 | 10.26272 | 35976 ft | 403 kts | 333° |
| 2026-04-22 07:01 | 36.83711 | 10.23766 | 35970 ft | 404 kts | 333° |
| 2026-04-22 07:02 | 36.89136 | 10.21702 | 35974 ft | 410 kts | 340° |
| 2026-04-22 07:02 | 36.94705 | 10.20043 | 35960 ft | 412 kts | 340° |
| 2026-04-22 07:03 | 37.00280 | 10.18371 | 35977 ft | 412 kts | 340° |
| 2026-04-22 07:03 | 37.05857 | 10.16653 | 35981 ft | 413 kts | 340° |
| 2026-04-22 07:04 | 37.11433 | 10.14916 | 35972 ft | 413 kts | 340° |
| 2026-04-22 07:04 | 37.16974 | 10.13184 | 35972 ft | 413 kts | 340° |
| 2026-04-22 07:05 | 37.22541 | 10.11443 | 35970 ft | 412 kts | 340° |
| 2026-04-22 07:05 | 37.28100 | 10.09701 | 35975 ft | 411 kts | 340° |
| 2026-04-22 07:06 | 37.33650 | 10.07959 | 35979 ft | 411 kts | 340° |
| 2026-04-22 07:06 | 37.39189 | 10.06219 | 35973 ft | 410 kts | 340° |
| 2026-04-22 07:07 | 37.44720 | 10.04482 | 35972 ft | 409 kts | 340° |
| 2026-04-22 07:07 | 37.49314 | 10.03038 | 35975 ft | 409 kts | 340° |
| 2026-04-22 07:08 | 37.54831 | 10.01301 | 35991 ft | 409 kts | 340° |
| 2026-04-22 07:08 | 37.60347 | 9.99562 | 35982 ft | 409 kts | 340° |
| 2026-04-22 07:09 | 37.65894 | 9.97810 | 35970 ft | 408 kts | 340° |
| 2026-04-22 07:09 | 37.71372 | 9.96077 | 35976 ft | 408 kts | 340° |
| 2026-04-22 07:10 | 37.76877 | 9.94332 | 35975 ft | 408 kts | 340° |
| 2026-04-22 07:10 | 37.82397 | 9.92569 | 35981 ft | 409 kts | 340° |
| 2026-04-22 07:11 | 37.87912 | 9.90803 | 35977 ft | 409 kts | 340° |
| 2026-04-22 07:11 | 37.93428 | 9.89035 | 35979 ft | 409 kts | 340° |
| 2026-04-22 07:12 | 37.98942 | 9.87265 | 35978 ft | 409 kts | 340° |
| 2026-04-22 07:12 | 38.04456 | 9.85492 | 35978 ft | 409 kts | 340° |
| 2026-04-22 07:13 | 38.09967 | 9.83718 | 35980 ft | 408 kts | 339° |
| 2026-04-22 07:13 | 38.15475 | 9.81941 | 35976 ft | 408 kts | 339° |
| 2026-04-22 07:14 | 38.20983 | 9.80162 | 35978 ft | 408 kts | 339° |
| 2026-04-22 07:14 | 38.26487 | 9.78383 | 35991 ft | 408 kts | 340° |
| 2026-04-22 07:15 | 38.32004 | 9.76611 | 35985 ft | 409 kts | 340° |
| 2026-04-22 07:15 | 38.37519 | 9.74841 | 35980 ft | 409 kts | 340° |
| 2026-04-22 07:16 | 38.43043 | 9.73064 | 35977 ft | 409 kts | 340° |
| 2026-04-22 07:16 | 38.48529 | 9.71296 | 35984 ft | 409 kts | 340° |
| 2026-04-22 07:17 | 38.54060 | 9.69509 | 35992 ft | 410 kts | 340° |
| 2026-04-22 07:17 | 38.59599 | 9.67718 | 35980 ft | 411 kts | 340° |
| 2026-04-22 07:18 | 38.65144 | 9.65922 | 35975 ft | 411 kts | 340° |
| 2026-04-22 07:18 | 38.70696 | 9.64120 | 35990 ft | 412 kts | 340° |
| 2026-04-22 07:19 | 38.76257 | 9.62312 | 35989 ft | 413 kts | 341° |
| 2026-04-22 07:19 | 38.81823 | 9.60501 | 35982 ft | 413 kts | 341° |
| 2026-04-22 07:20 | 38.87401 | 9.58682 | 35986 ft | 414 kts | 341° |
| 2026-04-22 07:20 | 38.92976 | 9.56852 | 35981 ft | 414 kts | 340° |
| 2026-04-22 07:21 | 38.98547 | 9.54993 | 36002 ft | 414 kts | 341° |
| 2026-04-22 07:21 | 39.04122 | 9.53132 | 35987 ft | 414 kts | 341° |
| 2026-04-22 07:22 | 39.09688 | 9.51226 | 35979 ft | 412 kts | 337° |
| 2026-04-22 07:22 | 39.14747 | 9.47975 | 35992 ft | 404 kts | 324° |
| 2026-04-22 07:23 | 39.19483 | 9.44070 | 35977 ft | 404 kts | 324° |
| 2026-04-22 07:23 | 39.24231 | 9.40166 | 35997 ft | 405 kts | 324° |
| 2026-04-22 07:24 | 39.28997 | 9.36274 | 36000 ft | 406 kts | 324° |
| 2026-04-22 07:24 | 39.33767 | 9.32387 | 35975 ft | 401 kts | 324° |
| 2026-04-22 07:24 | 39.36111 | 9.30476 | 35631 ft | 396 kts | 324° |
| 2026-04-22 07:25 | 39.38411 | 9.28600 | 35268 ft | 390 kts | 325° |
| 2026-04-22 07:25 | 39.40692 | 9.26736 | 34856 ft | 385 kts | 325° |
| 2026-04-22 07:25 | 39.42948 | 9.24890 | 34399 ft | 382 kts | 325° |
| 2026-04-22 07:25 | 39.45187 | 9.23057 | 33959 ft | 379 kts | 325° |
| 2026-04-22 07:26 | 39.47407 | 9.21237 | 33450 ft | 377 kts | 325° |
| 2026-04-22 07:26 | 39.49610 | 9.19431 | 32977 ft | 373 kts | 325° |
| 2026-04-22 07:26 | 39.51794 | 9.17638 | 32544 ft | 369 kts | 325° |
| 2026-04-22 07:26 | 39.53953 | 9.15865 | 32095 ft | 366 kts | 325° |
| 2026-04-22 07:27 | 39.56095 | 9.14105 | 31671 ft | 362 kts | 325° |
| 2026-04-22 07:27 | 39.58186 | 9.12386 | 31251 ft | 359 kts | 325° |
| 2026-04-22 07:27 | 39.60287 | 9.10657 | 30839 ft | 356 kts | 325° |
| 2026-04-22 07:27 | 39.62403 | 9.09004 | 30409 ft | 355 kts | 333° |
| 2026-04-22 07:28 | 39.67252 | 9.07999 | 29724 ft | 356 kts | 1° |
| 2026-04-22 07:28 | 39.69716 | 9.08636 | 29346 ft | 356 kts | 9° |
| 2026-04-22 07:28 | 39.72072 | 9.09458 | 28912 ft | 354 kts | 10° |
| 2026-04-22 07:29 | 39.74433 | 9.10304 | 28530 ft | 350 kts | 10° |
| 2026-04-22 07:29 | 39.76776 | 9.11129 | 28113 ft | 348 kts | 10° |
| 2026-04-22 07:29 | 39.79107 | 9.11927 | 27731 ft | 344 kts | 9° |
| 2026-04-22 07:29 | 39.81417 | 9.12703 | 27316 ft | 342 kts | 9° |
| 2026-04-22 07:30 | 39.83715 | 9.13471 | 26934 ft | 340 kts | 9° |
| 2026-04-22 07:30 | 39.85996 | 9.14250 | 26553 ft | 339 kts | 12° |
| 2026-04-22 07:30 | 39.88226 | 9.15254 | 26154 ft | 339 kts | 15° |
| 2026-04-22 07:30 | 39.90425 | 9.16350 | 25778 ft | 338 kts | 16° |
| 2026-04-22 07:31 | 39.92615 | 9.17466 | 25382 ft | 337 kts | 17° |
| 2026-04-22 07:31 | 39.94797 | 9.18578 | 25011 ft | 336 kts | 17° |
| 2026-04-22 07:31 | 39.96971 | 9.19681 | 24632 ft | 335 kts | 17° |
| 2026-04-22 07:31 | 39.99145 | 9.20777 | 24255 ft | 334 kts | 17° |
| 2026-04-22 07:32 | 40.01313 | 9.21866 | 23881 ft | 334 kts | 17° |
| 2026-04-22 07:32 | 40.03482 | 9.22953 | 23464 ft | 333 kts | 17° |
| 2026-04-22 07:32 | 40.05636 | 9.24032 | 23056 ft | 331 kts | 17° |
| 2026-04-22 07:32 | 40.07784 | 9.25107 | 22669 ft | 330 kts | 17° |
| 2026-04-22 07:33 | 40.09921 | 9.26178 | 22264 ft | 328 kts | 17° |
| 2026-04-22 07:33 | 40.12042 | 9.27241 | 21917 ft | 326 kts | 16° |
| 2026-04-22 07:33 | 40.14155 | 9.28300 | 21539 ft | 324 kts | 16° |
| 2026-04-22 07:33 | 40.16256 | 9.29354 | 21172 ft | 323 kts | 16° |
| 2026-04-22 07:34 | 40.18348 | 9.30403 | 20807 ft | 321 kts | 16° |
| 2026-04-22 07:34 | 40.20430 | 9.31448 | 20459 ft | 320 kts | 16° |
| 2026-04-22 07:34 | 40.22504 | 9.32491 | 20084 ft | 318 kts | 16° |
| 2026-04-22 07:34 | 40.24560 | 9.33525 | 19738 ft | 316 kts | 16° |
| 2026-04-22 07:35 | 40.26606 | 9.34554 | 19384 ft | 315 kts | 16° |
| 2026-04-22 07:35 | 40.28651 | 9.35583 | 19028 ft | 314 kts | 16° |
| 2026-04-22 07:35 | 40.30686 | 9.36607 | 18669 ft | 313 kts | 17° |
| 2026-04-22 07:35 | 40.32712 | 9.37632 | 18321 ft | 310 kts | 16° |
| 2026-04-22 07:36 | 40.34725 | 9.38647 | 17926 ft | 310 kts | 16° |
| 2026-04-22 07:36 | 40.36729 | 9.39659 | 17545 ft | 308 kts | 16° |
| 2026-04-22 07:36 | 40.38732 | 9.40432 | 17166 ft | 300 kts | 0° |
| 2026-04-22 07:36 | 40.40787 | 9.40441 | 16879 ft | 293 kts | 354° |
| 2026-04-22 07:37 | 40.42824 | 9.40369 | 16504 ft | 293 kts | 354° |
| 2026-04-22 07:37 | 40.44858 | 9.40305 | 16164 ft | 292 kts | 355° |
| 2026-04-22 07:37 | 40.46887 | 9.40256 | 15824 ft | 291 kts | 355° |
| 2026-04-22 07:37 | 40.48906 | 9.40215 | 15475 ft | 290 kts | 355° |
| 2026-04-22 07:38 | 40.50919 | 9.40179 | 15138 ft | 288 kts | 355° |
| 2026-04-22 07:38 | 40.52921 | 9.40144 | 14824 ft | 287 kts | 355° |
| 2026-04-22 07:38 | 40.54920 | 9.40104 | 14475 ft | 287 kts | 355° |
| 2026-04-22 07:38 | 40.56914 | 9.40063 | 14142 ft | 286 kts | 355° |
| 2026-04-22 07:39 | 40.58907 | 9.40021 | 13807 ft | 286 kts | 355° |
| 2026-04-22 07:39 | 40.60901 | 9.39980 | 13424 ft | 286 kts | 355° |
| 2026-04-22 07:39 | 40.62894 | 9.39939 | 13055 ft | 286 kts | 355° |
| 2026-04-22 07:39 | 40.64875 | 9.39899 | 12722 ft | 284 kts | 355° |
| 2026-04-22 07:40 | 40.66852 | 9.39859 | 12363 ft | 284 kts | 356° |
| 2026-04-22 07:40 | 40.68799 | 9.40312 | 12005 ft | 290 kts | 21° |
| 2026-04-22 07:40 | 40.70453 | 9.41846 | 11752 ft | 294 kts | 42° |
| 2026-04-22 07:40 | 40.71717 | 9.43976 | 11458 ft | 296 kts | 51° |
| 2026-04-22 07:41 | 40.72874 | 9.46222 | 11171 ft | 296 kts | 52° |
| 2026-04-22 07:41 | 40.74021 | 9.48481 | 10881 ft | 296 kts | 52° |
| 2026-04-22 07:41 | 40.75153 | 9.50695 | 10629 ft | 287 kts | 51° |
| 2026-04-22 07:41 | 40.76260 | 9.52841 | 10356 ft | 277 kts | 51° |
| 2026-04-22 07:42 | 40.77340 | 9.54920 | 10064 ft | 275 kts | 50° |
| 2026-04-22 07:42 | 40.78430 | 9.57002 | 9787 ft | 276 kts | 50° |
| 2026-04-22 07:42 | 40.79528 | 9.59098 | 9485 ft | 279 kts | 51° |
| 2026-04-22 07:42 | 40.80631 | 9.61203 | 9224 ft | 279 kts | 51° |
| 2026-04-22 07:43 | 40.81739 | 9.63318 | 8922 ft | 280 kts | 51° |
| 2026-04-22 07:43 | 40.82842 | 9.65433 | 8647 ft | 279 kts | 51° |
| 2026-04-22 07:43 | 40.83928 | 9.67521 | 8366 ft | 272 kts | 51° |
| 2026-04-22 07:43 | 40.84979 | 9.69541 | 8099 ft | 262 kts | 51° |
| 2026-04-22 07:44 | 40.85997 | 9.71496 | 7852 ft | 256 kts | 51° |
| 2026-04-22 07:44 | 40.87001 | 9.73423 | 7614 ft | 255 kts | 51° |
| 2026-04-22 07:44 | 40.88008 | 9.75356 | 7382 ft | 257 kts | 51° |
| 2026-04-22 07:44 | 40.89026 | 9.77311 | 7135 ft | 259 kts | 51° |
| 2026-04-22 07:45 | 40.90051 | 9.79274 | 6889 ft | 259 kts | 51° |
| 2026-04-22 07:45 | 40.91069 | 9.81226 | 6629 ft | 258 kts | 51° |
| 2026-04-22 07:45 | 40.92071 | 9.83149 | 6382 ft | 257 kts | 51° |
| 2026-04-22 07:45 | 40.93082 | 9.85089 | 6134 ft | 254 kts | 51° |
| 2026-04-22 07:46 | 40.94053 | 9.86961 | 5982 ft | 240 kts | 52° |
| 2026-04-22 07:46 | 40.94983 | 9.88760 | 5899 ft | 236 kts | 52° |
| 2026-04-22 07:46 | 40.95917 | 9.90564 | 5825 ft | 239 kts | 52° |
| 2026-04-22 07:46 | 40.96879 | 9.92380 | 5727 ft | 241 kts | 46° |
| 2026-04-22 07:47 | 40.98237 | 9.93557 | 5382 ft | 229 kts | 9° |
| 2026-04-22 07:47 | 40.99754 | 9.93485 | 5201 ft | 212 kts | 342° |
| 2026-04-22 07:47 | 41.01047 | 9.92704 | 5043 ft | 201 kts | 324° |
| 2026-04-22 07:47 | 41.02190 | 9.91658 | 4935 ft | 201 kts | 324° |
| 2026-04-22 07:48 | 41.03353 | 9.90594 | 4810 ft | 205 kts | 324° |
| 2026-04-22 07:48 | 41.04540 | 9.89513 | 4676 ft | 209 kts | 324° |
| 2026-04-22 07:48 | 41.05737 | 9.88425 | 4533 ft | 208 kts | 324° |
| 2026-04-22 07:48 | 41.06722 | 9.87079 | 4374 ft | 204 kts | 295° |
| 2026-04-22 07:49 | 41.06951 | 9.85268 | 4281 ft | 199 kts | 265° |
| 2026-04-22 07:49 | 41.06503 | 9.83566 | 4153 ft | 196 kts | 239° |
| 2026-04-22 07:49 | 41.05735 | 9.82064 | 4030 ft | 198 kts | 238° |
| 2026-04-22 07:49 | 41.04958 | 9.80549 | 3897 ft | 200 kts | 237° |
| 2026-04-22 07:50 | 41.04176 | 9.79025 | 3777 ft | 201 kts | 237° |
| 2026-04-22 07:50 | 41.03388 | 9.77493 | 3633 ft | 201 kts | 237° |
| 2026-04-22 07:50 | 41.02565 | 9.75993 | 3511 ft | 201 kts | 235° |
| 2026-04-22 07:50 | 41.01747 | 9.74490 | 3380 ft | 201 kts | 236° |
| 2026-04-22 07:51 | 41.00959 | 9.72995 | 3244 ft | 195 kts | 236° |
| 2026-04-22 07:51 | 41.00194 | 9.71533 | 3113 ft | 194 kts | 236° |
| 2026-04-22 07:51 | 40.99437 | 9.70086 | 3023 ft | 192 kts | 236° |
| 2026-04-22 07:51 | 40.98677 | 9.68632 | 2776 ft | 191 kts | 236° |
| 2026-04-22 07:52 | 40.97938 | 9.67220 | 2528 ft | 179 kts | 236° |
| 2026-04-22 07:52 | 40.97259 | 9.65922 | 2315 ft | 168 kts | 236° |
| 2026-04-22 07:52 | 40.96593 | 9.64646 | 2094 ft | 170 kts | 236° |
| 2026-04-22 07:52 | 40.95929 | 9.63374 | 1860 ft | 167 kts | 236° |
| 2026-04-22 07:53 | 40.95270 | 9.62114 | 1639 ft | 167 kts | 236° |
| 2026-04-22 07:53 | 40.94626 | 9.60880 | 1418 ft | 158 kts | 236° |
| 2026-04-22 07:53 | 40.94015 | 9.59709 | 1180 ft | 153 kts | 236° |
| 2026-04-22 07:53 | 40.93426 | 9.58541 | 1001 ft | 155 kts | 236° |
| 2026-04-22 07:54 | 40.92805 | 9.57378 | 820 ft | 155 kts | 234° |
| 2026-04-22 07:54 | 40.92186 | 9.56221 | 563 ft | 152 kts | 236° |
| 2026-04-22 07:54 | 40.91595 | 9.55077 | 371 ft | 151 kts | 235° |
| 2026-04-22 07:54 | 40.90999 | 9.53936 | 180 ft | 151 kts | 236° |
| 2026-04-22 07:55 | 40.90408 | 9.52800 | 38 ft | 146 kts | 236° |
| 2026-04-22 07:55 | 40.89895 | 9.51819 | 32 ft | 109 kts | 235° |
| 2026-04-22 07:55 | 40.89555 | 9.51167 | 33 ft | 55 kts | 235° |
| 2026-04-22 07:55 | 40.89437 | 9.50943 | 32 ft | 40 kts | 235° |
| 2026-04-22 07:56 | 40.89314 | 9.50709 | 33 ft | 19 kts | 235° |
| 2026-04-22 07:56 | 40.89272 | 9.50563 | 33 ft | 9 kts | 280° |
| 2026-04-22 07:56 | 40.89285 | 9.50483 | 32 ft | 9 kts | 292° |
| 2026-04-22 07:56 | 40.89353 | 9.50440 | 33 ft | 13 kts | 7° |
| 2026-04-22 07:57 | 40.89417 | 9.50514 | 33 ft | 12 kts | 52° |
| 2026-04-22 07:57 | 40.89466 | 9.50604 | 33 ft | 12 kts | 62° |
| 2026-04-22 07:57 | 40.89513 | 9.50697 | 33 ft | 13 kts | 54° |
| 2026-04-22 07:57 | 40.89573 | 9.50812 | 33 ft | 18 kts | 56° |
| 2026-04-22 07:58 | 40.89649 | 9.50958 | 33 ft | 20 kts | 55° |
| 2026-04-22 07:58 | 40.89726 | 9.51103 | 33 ft | 19 kts | 54° |
| 2026-04-22 07:58 | 40.89800 | 9.51244 | 33 ft | 18 kts | 56° |
| 2026-04-22 07:58 | 40.89870 | 9.51382 | 33 ft | 18 kts | 55° |
| 2026-04-22 07:59 | 40.89928 | 9.51486 | 33 ft | 11 kts | 39° |
| 2026-04-22 07:59 | 40.90000 | 9.51514 | 33 ft | 11 kts | 354° |
| 2026-04-22 07:59 | 40.90064 | 9.51487 | 33 ft | 9 kts | 17° |
| 2026-04-22 07:59 | 40.90109 | 9.51546 | 33 ft | 9 kts | 53° |
| 2026-04-22 08:00 | 40.90144 | 9.51613 | 31 ft | 9 kts | 56° |
| 2026-04-22 08:00 | 40.90186 | 9.51649 | 33 ft | 8 kts | 345° |
| 2026-04-22 08:00 | 40.90218 | 9.51624 | 33 ft | 1 kts | 326° |
| 2026-04-22 08:00 | 40.90220 | 9.51622 | 33 ft | 0 kts | 326° |